Airfield :
LOGIN :

Register | Disclaimer

   EN    FR    IT 

 










Legend :    VFR   Marginal VFR   IFR   Intensive IFR   Very Intensive IFR
Visi :
Ceiling :
>= 8 km
>= 3000ft
5 to 8 km
1000 to 3000 ft
1500m to 5 km
500 to 1000 ft
800 to 1500m
200 to 500 ft
< 800m
< 200 ft
Symbols :   Thunderstorms  Fog  Heavy snow  Heavy precipitations  Wind > 20 kt
SIGMETs :     Misc.  Thunderstorms  Icing  Turbulence  Mountain Waves  Volcanic Ashes







- Airport Elevation : 348 ft
- IATA code : LDV
- Download approach charts


LFRJ - Landivisiau

CURRENT METAR :
  • 181530Z AUTO 29014KT 9999 SCT021 SCT027 BKN039 10/07 Q1011 TEMPO SHRA BKN020TCU BECMG 28015G30KT

EXPIRED METARs :
  • 181500Z AUTO 29018KT 9999 BKN026 BKN033 BKN042 11/06 Q1010 TEMPO SHRA BKN020TCU BECMG 28015G30KT
  • 181430Z AUTO 28020KT 9999 SCT029 BKN034 BKN110 11/07 Q1010 TEMPO SHRA BKN020TCU BECMG 28015G30KT
  • 181400Z AUTO 28018KT 9999 FEW027/// SCT032/// 11/07 Q1011 TEMPO SHRA BKN015TCU BECMG 29015G25KT
  • 181330Z AUTO 28019KT 9999 FEW027/// BKN039/// 11/07 Q1011 TEMPO SHRA BKN015TCU BECMG 29015G25KT
  • 181300Z AUTO 28018KT 9999 BKN024/// BKN034/// BKN040/// 11/07 Q1010 TEMPO SHRA BKN015TCU BECMG 29015G25KT

TAF TAF LFRJ
Valid from the 18 at 15:00 until the 19 at 00:00 UTC


181400Z 1815/1824 28015G30KT 9999 SCT030 SCT040
TEMPO 1815/1824 5000 SHRA BKN020TCU
No reported NOTAMs for that airfield.



MET'MAP, your aeronautical weather chart ! - Copyright ORBIFLY December 2007 - Disclaimer

ORBIFLY MET'MAP TEAM :

Programming & Development : Alexandra Zaïnal
Concept & Development : Baudouin d'Aumeries
Co-Development & Prog : Marc-Olivier Méhu
Technical & hardware support : Manuel Goepfert

Contact : metmap@orbifly.com




SOURCES & CREDITS :

   NOAA